Thunder radar more information blitzortung!


Rain radar  rain snow radar



Ingen spesiell oppmerksomhet nødvendig.    Det er ingen advarsler

Nearby METAR Reports

   
ENZV - Stavanger
Oppdatert: May 22 2019 12:20 am
Dis, Overskyet  
Dis, Overskyet  
   Vind: NV 4.6 m/s
Vind: NV 4.6 m/s
Temperatur: 10°C
Wind Chill: 8°C
Duggpunkt: 10°C
Luftfuktighet: 100%
Barometer: 1010 hPa
Skyer: Overcast
Sikt: 4 km
Detaljer skyer: Overskyet 200 ft
ENZV 212220Z 31009KT 4000 BR OVC002 10/10 Q1010
ENCN - Kristiansand
Oppdatert: May 22 2019 12:20 am
Overskyet  
Overskyet  
   Vind: varierende 2.1 m/s
Vind: varierende 2.1 m/s
Temperatur: 16°C
Duggpunkt: 15°C
Luftfuktighet: 94%
Barometer: 1008 hPa
Skyer: Overcast
Sikt: More than 10 km
Detaljer skyer: Delvis overskyet 2900 ft,
Overskyet 3900 ft
ENCN 212220Z AUTO VRB04KT 9999 SCT029/// OVC039/// 16/15 Q1008 REDZ
ENBR - Bergen
Oppdatert: May 21 2019 11:50 pm
Lett Regn, For det meste Overskyet  
Lett Regn, For det meste Overskyet  
   Vind: Sør 4.1 m/s
Vind: Sør 4.1 m/s
Temperatur: 12°C
Duggpunkt: 11°C
Luftfuktighet: 94%
Barometer: 1010 hPa
Skyer: Mostly Cloudy
Sikt: More than 10 km
Detaljer skyer: Noen skyer 4000 ft,
For det meste Overskyet 8000 ft
ENBR 212150Z 17008KT 9999 -RA FEW040 BKN080 12/11 Q1010 RMK WIND 1200FT 33003KT
ENGM - Oslo
Oppdatert: May 22 2019 12:20 am
For det meste Overskyet  
For det meste Overskyet  
   Vind: NØ 4.1 m/s
Vind: NØ 4.1 m/s
Temperatur: 16°C
Duggpunkt: 14°C
Luftfuktighet: 88%
Barometer: 1009 hPa
Skyer: Mostly Cloudy
Sikt: More than 10 km
Detaljer skyer: For det meste Overskyet 4500 ft
ENGM 212220Z 04008KT 9999 BKN045 16/14 Q1009
ENVA - Trondheim
Oppdatert: May 22 2019 12:20 am
Klart  
Klart  
   Vind: SØ 3.1 m/s
Vind: SØ 3.1 m/s
Temperatur: 16°C
Duggpunkt: 12°C
Luftfuktighet: 77%
Barometer: 1011 hPa
Sikt: More than 10 km
Detaljer skyer: Klart ft
ENVA 212220Z 13006KT CAVOK 16/12 Q1011 RMK WIND 670FT 13009KT
ENTC - Tromsø
Oppdatert: May 22 2019 12:20 am
Delvis overskyet  
Delvis overskyet  
   Vind: NNØ 8.2 m/s
Vind: NNØ 8.2 m/s
Temperatur: 5°C
Wind Chill: 0°C
Duggpunkt: 2°C
Luftfuktighet: 81%
Barometer: 1020 hPa
Skyer: Partly Cloudy
Sikt: More than 10 km
Detaljer skyer: Delvis overskyet 3300 ft
ENTC 212220Z 02016KT 9999 SCT033 05/02 Q1020 RMK WIND 2600FT 10012KT

Script utviklet av  Saratoga-weather.org Tilpasset for tamplaten av  Weerstation Leuven

Du finner vår vær info også på:

European Weather Network

WeatherCloud

Weather Underground

AWEKAS

HAMweather, WeatherForYou, PWS Weather

Utrustning vi bruker:

vær-station
Davis VP2

vær-programmet
Weather Display

Davis VP2

Weather Display